Time;durP1;ratioP1;P1;durP2;ratioP2;P2;SDS_P1;SDS_P2;PMS_P1;PMS_P2;Temp;Humidity;BMP_temperature;BMP_pressure;BME280_temperature;BME280_humidity;BME280_pressure;Samples;Min_cycle;Max_cycle;Signal;HPM_P1;HPM_P2
2021/04/23 00:01:24;;;;;;;3.55;2.50;;;21.00;41.30;;;;;;5012101;28;20423;-71
2021/04/23 00:03:52;;;;;;;2.45;2.05;;;21.00;41.40;;;;;;5006250;28;20475;-72
2021/04/23 00:06:20;;;;;;;2.63;2.42;;;21.00;41.30;;;;;;5005534;28;20417;-70
2021/04/23 00:08:48;;;;;;;3.90;2.22;;;21.10;41.50;;;;;;5005898;28;20424;-70
2021/04/23 00:11:14;;;;;;;3.38;2.38;;;21.10;41.30;;;;;;5005552;28;20424;-70
2021/04/23 00:13:41;;;;;;;2.55;2.10;;;21.10;41.30;;;;;;4991979;28;20439;-70
2021/04/23 00:16:08;;;;;;;4.22;1.90;;;21.10;41.20;;;;;;5005710;28;20411;-70
2021/04/23 00:18:35;;;;;;;3.30;2.38;;;21.10;41.30;;;;;;5002439;28;20431;-71
2021/04/23 00:21:01;;;;;;;5.80;2.10;;;21.10;41.20;;;;;;5005789;28;20496;-70
2021/04/23 00:23:27;;;;;;;2.20;2.10;;;21.10;41.30;;;;;;5005527;28;20439;-70
2021/04/23 00:25:53;;;;;;;3.20;1.95;;;21.10;41.30;;;;;;5006307;28;20427;-70
2021/04/23 00:28:19;;;;;;;2.50;2.10;;;21.10;41.40;;;;;;5005618;28;20454;-69
2021/04/23 00:30:47;;;;;;;3.05;1.85;;;21.00;41.20;;;;;;5005350;28;20420;-71
2021/04/23 00:33:14;;;;;;;2.50;2.20;;;21.10;41.40;;;;;;5005664;28;20412;-71
2021/04/23 00:35:43;;;;;;;4.80;2.40;;;21.10;41.40;;;;;;5005933;28;20395;-71
2021/04/23 00:38:10;;;;;;;4.10;2.00;;;21.10;41.40;;;;;;5005245;28;20419;-72
2021/04/23 00:40:38;;;;;;;2.90;2.30;;;21.10;41.40;;;;;;5003379;28;20473;-71
2021/04/23 00:43:05;;;;;;;4.82;2.10;;;21.10;41.30;;;;;;5002669;28;20411;-71
2021/04/23 00:45:31;;;;;;;2.50;2.30;;;21.10;41.40;;;;;;5006208;28;20496;-70
2021/04/23 00:47:59;;;;;;;2.75;2.13;;;21.20;41.30;;;;;;5014635;28;20422;-70
2021/04/23 00:50:33;;;;;;;2.13;1.92;;;21.20;41.30;;;;;;5009436;28;20919;-72
2021/04/23 00:53:00;;;;;;;3.00;2.25;;;21.20;41.40;;;;;;5008512;28;20970;-72
2021/04/23 00:55:29;;;;;;;2.60;2.00;;;21.20;41.30;;;;;;5010070;28;20412;-71
2021/04/23 00:57:55;;;;;;;2.60;1.90;;;21.10;41.20;;;;;;5009457;28;20424;-70
2021/04/23 01:00:22;;;;;;;2.95;2.05;;;21.10;41.40;;;;;;5007457;28;20420;-70
2021/04/23 01:02:48;;;;;;;2.30;2.10;;;21.10;41.30;;;;;;5006969;28;20774;-72
2021/04/23 01:05:23;;;;;;;2.00;1.90;;;21.10;41.40;;;;;;5008519;28;20504;-72
2021/04/23 01:07:49;;;;;;;3.47;2.17;;;21.10;41.30;;;;;;5008087;28;20993;-72
2021/04/23 01:10:16;;;;;;;2.53;2.30;;;21.10;41.30;;;;;;5008484;28;20999;-72
2021/04/23 01:12:42;;;;;;;2.97;2.10;;;21.20;41.40;;;;;;5008946;28;20417;-71
2021/04/23 01:15:09;;;;;;;2.03;1.90;;;21.20;41.30;;;;;;5008618;28;20400;-70
2021/04/23 01:17:36;;;;;;;2.40;2.20;;;21.10;41.20;;;;;;5008718;28;20422;-72
2021/04/23 01:20:02;;;;;;;2.70;1.70;;;21.20;41.40;;;;;;5010769;28;20413;-70
2021/04/23 01:22:29;;;;;;;2.53;2.20;;;21.10;41.30;;;;;;5011674;28;20489;-70
2021/04/23 01:24:56;;;;;;;3.30;1.83;;;21.10;41.40;;;;;;5008667;28;21177;-72
2021/04/23 01:27:22;;;;;;;2.20;1.80;;;21.10;42.20;;;;;;5008942;28;21686;-71
2021/04/23 01:29:48;;;;;;;2.50;2.30;;;21.10;41.40;;;;;;5008531;28;20912;-70
2021/04/23 01:32:14;;;;;;;2.75;1.95;;;21.10;41.50;;;;;;5008897;28;20425;-70
2021/04/23 01:34:41;;;;;;;2.50;2.10;;;21.00;41.40;;;;;;5007154;28;20403;-71
2021/04/23 01:37:07;;;;;;;2.75;2.03;;;21.00;41.40;;;;;;5008879;28;20415;-71
2021/04/23 01:39:36;;;;;;;2.72;2.10;;;21.00;41.40;;;;;;5010572;28;20941;-71
2021/04/23 01:42:03;;;;;;;2.10;1.80;;;21.00;41.40;;;;;;5008741;28;20490;-70
2021/04/23 01:44:30;;;;;;;2.55;2.00;;;21.00;41.40;;;;;;5007435;28;20474;-70
2021/04/23 01:46:56;;;;;;;2.40;1.90;;;21.00;41.40;;;;;;5007750;28;20420;-70
2021/04/23 01:49:23;;;;;;;2.50;2.30;;;21.00;41.50;;;;;;5008696;28;20409;-70
2021/04/23 01:51:50;;;;;;;2.20;2.10;;;21.00;41.50;;;;;;5006423;28;20917;-71
2021/04/23 01:54:17;;;;;;;4.00;2.70;;;21.00;41.40;;;;;;5008587;28;20972;-71
2021/04/23 01:56:44;;;;;;;2.20;2.10;;;21.00;41.50;;;;;;5008565;28;20419;-70
2021/04/23 01:59:10;;;;;;;2.40;2.20;;;21.00;41.40;;;;;;5004208;28;20416;-70
2021/04/23 02:01:36;;;;;;;2.55;2.35;;;21.00;41.50;;;;;;5008686;28;20407;-72
2021/04/23 02:04:03;;;;;;;2.40;2.20;;;21.00;41.50;;;;;;5008074;28;20835;-72
2021/04/23 02:06:29;;;;;;;5.78;2.10;;;21.10;41.50;;;;;;5008769;28;20406;-71
2021/04/23 02:08:55;;;;;;;3.72;2.10;;;21.10;41.60;;;;;;5008418;28;20471;-71
2021/04/23 02:11:22;;;;;;;2.42;2.13;;;21.10;41.50;;;;;;5006028;28;20974;-71
2021/04/23 02:13:50;;;;;;;3.33;2.40;;;21.10;41.50;;;;;;5005904;28;20417;-70
2021/04/23 02:16:17;;;;;;;3.70;2.28;;;21.10;41.50;;;;;;5007667;28;20413;-70
2021/04/23 02:18:43;;;;;;;2.17;1.80;;;21.10;41.50;;;;;;5007697;28;21430;-70
2021/04/23 02:21:09;;;;;;;5.47;2.65;;;21.00;41.40;;;;;;5006915;28;20438;-71
2021/04/23 02:23:36;;;;;;;2.40;2.20;;;21.00;41.40;;;;;;5004846;28;20799;-71
2021/04/23 02:26:02;;;;;;;3.90;1.92;;;21.00;41.60;;;;;;5008109;28;20494;-70
2021/04/23 02:28:28;;;;;;;1.90;1.80;;;21.10;41.70;;;;;;5006770;28;20455;-71
2021/04/23 02:30:59;;;;;;;4.05;2.00;;;21.10;41.70;;;;;;5007224;28;20415;-72
2021/04/23 02:33:25;;;;;;;2.50;1.80;;;21.10;41.50;;;;;;5016239;28;20427;-70
2021/04/23 02:35:52;;;;;;;2.08;1.90;;;21.10;41.50;;;;;;5010195;28;20949;-72
2021/04/23 02:38:18;;;;;;;1.95;1.80;;;21.10;41.60;;;;;;5007395;28;20560;-71
2021/04/23 02:40:46;;;;;;;2.20;2.00;;;21.10;41.50;;;;;;5007287;28;20417;-71
2021/04/23 02:43:14;;;;;;;2.90;2.10;;;21.10;41.40;;;;;;4993409;28;20415;-71
2021/04/23 02:45:40;;;;;;;2.10;1.90;;;21.20;41.40;;;;;;5006826;28;20418;-72
2021/04/23 02:48:08;;;;;;;3.40;1.80;;;21.20;41.40;;;;;;5007191;28;20418;-70
2021/04/23 02:50:34;;;;;;;5.75;1.90;;;21.20;41.40;;;;;;5003198;28;20807;-71
2021/04/23 02:53:01;;;;;;;3.08;1.90;;;21.10;41.20;;;;;;5007698;28;20421;-71
2021/04/23 02:55:27;;;;;;;2.20;2.00;;;21.10;41.20;;;;;;5007248;28;20412;-71
2021/04/23 02:57:58;;;;;;;3.70;2.30;;;21.10;41.40;;;;;;5007453;28;20835;-70
2021/04/23 03:00:26;;;;;;;1.98;1.80;;;21.10;41.40;;;;;;4999599;28;20430;-71
2021/04/23 03:02:52;;;;;;;2.80;2.35;;;21.10;41.40;;;;;;5017452;28;21075;-71
2021/04/23 03:05:19;;;;;;;2.03;1.83;;;21.10;41.50;;;;;;5006996;28;20413;-69
2021/04/23 03:07:46;;;;;;;4.30;1.92;;;21.00;41.40;;;;;;5007185;28;20423;-71
2021/04/23 03:10:13;;;;;;;3.00;1.97;;;21.10;41.50;;;;;;5005399;28;20418;-70
2021/04/23 03:12:40;;;;;;;4.88;2.00;;;21.00;41.20;;;;;;5005821;28;20408;-72
2021/04/23 03:15:08;;;;;;;3.10;2.30;;;21.00;41.30;;;;;;5003326;28;20413;-70
2021/04/23 03:17:34;;;;;;;4.43;2.00;;;21.10;41.90;;;;;;5006670;28;20926;-71
2021/04/23 03:20:00;;;;;;;3.75;2.17;;;21.10;41.10;;;;;;5004755;28;20779;-72
2021/04/23 03:22:27;;;;;;;2.40;1.90;;;21.10;41.00;;;;;;5007057;28;20460;-72
2021/04/23 03:24:53;;;;;;;2.00;1.90;;;21.20;40.90;;;;;;5005269;28;20425;-70
2021/04/23 03:27:19;;;;;;;4.30;1.90;;;21.20;40.80;;;;;;5005960;28;20413;-70
2021/04/23 03:29:45;;;;;;;2.63;2.00;;;21.20;41.40;;;;;;5006994;28;20428;-71
2021/04/23 03:32:11;;;;;;;2.67;1.80;;;21.30;40.70;;;;;;4995374;28;20468;-70
2021/04/23 03:34:38;;;;;;;3.10;1.90;;;21.30;40.60;;;;;;5006270;28;20426;-71
2021/04/23 03:37:04;;;;;;;5.78;2.10;;;21.30;40.70;;;;;;5006891;28;20411;-71
2021/04/23 03:39:31;;;;;;;3.30;1.95;;;21.30;40.50;;;;;;5005987;28;20477;-72
2021/04/23 03:41:57;;;;;;;3.15;1.20;;;21.30;40.50;;;;;;5007124;28;20940;-71
2021/04/23 03:44:23;;;;;;;3.03;1.85;;;21.40;40.50;;;;;;5006918;28;20487;-70
2021/04/23 03:46:49;;;;;;;3.25;1.98;;;21.30;40.30;;;;;;5001883;28;21217;-72
2021/04/23 03:49:15;;;;;;;5.13;1.50;;;21.30;40.40;;;;;;5012734;28;20431;-71
2021/04/23 03:51:41;;;;;;;3.42;1.58;;;21.30;40.40;;;;;;5006305;28;20412;-72
2021/04/23 03:54:08;;;;;;;3.70;1.67;;;21.30;40.50;;;;;;5002825;28;20414;-71
2021/04/23 03:56:35;;;;;;;1.90;1.70;;;21.30;40.30;;;;;;5006823;28;20516;-71
2021/04/23 03:59:01;;;;;;;2.70;2.10;;;21.30;40.50;;;;;;5005518;28;20426;-70
2021/04/23 04:01:27;;;;;;;3.17;1.60;;;21.30;40.30;;;;;;5002347;28;20785;-70
2021/04/23 04:03:54;;;;;;;1.38;1.25;;;21.30;40.40;;;;;;5005908;28;20844;-71
2021/04/23 04:06:20;;;;;;;5.75;2.30;;;21.30;40.30;;;;;;5003440;28;20423;-70
2021/04/23 04:08:47;;;;;;;3.67;2.10;;;21.30;40.30;;;;;;5006020;28;20800;-69
2021/04/23 04:11:13;;;;;;;3.10;1.50;;;21.30;40.30;;;;;;4994451;28;20422;-71
2021/04/23 04:13:40;;;;;;;4.05;1.83;;;21.30;40.30;;;;;;5004940;28;21117;-70
2021/04/23 04:16:06;;;;;;;2.95;1.70;;;21.30;40.30;;;;;;5000934;28;22730;-70
2021/04/23 04:18:32;;;;;;;6.63;1.80;;;21.30;41.10;;;;;;5005919;28;20457;-72
2021/04/23 04:20:58;;;;;;;2.00;1.20;;;21.30;40.20;;;;;;5004754;28;20426;-71
2021/04/23 04:23:25;;;;;;;1.92;1.52;;;21.30;40.20;;;;;;5012937;28;20974;-70
2021/04/23 04:25:55;;;;;;;3.10;1.60;;;21.30;40.10;;;;;;5012434;28;20440;-71
2021/04/23 04:28:21;;;;;;;2.47;1.88;;;21.30;40.10;;;;;;5010445;28;20420;-71
2021/04/23 04:30:48;;;;;;;1.60;1.30;;;21.30;40.10;;;;;;5012522;28;20473;-70
2021/04/23 04:33:15;;;;;;;2.70;1.70;;;21.40;40.30;;;;;;5012336;28;20420;-70
2021/04/23 04:35:41;;;;;;;1.88;1.63;;;21.30;40.10;;;;;;5012096;28;20411;-70
2021/04/23 04:38:09;;;;;;;1.48;1.38;;;21.30;40.10;;;;;;5012320;28;20423;-70
2021/04/23 04:40:35;;;;;;;2.50;1.25;;;21.40;40.20;;;;;;5008501;28;20913;-71
2021/04/23 04:43:02;;;;;;;1.40;1.27;;;21.40;40.10;;;;;;5012714;28;20422;-71
2021/04/23 04:45:28;;;;;;;3.28;1.20;;;21.40;40.10;;;;;;5012515;28;20449;-71
2021/04/23 04:47:55;;;;;;;4.70;1.70;;;21.40;40.00;;;;;;5012112;28;20420;-71
2021/04/23 04:50:25;;;;;;;3.67;1.83;;;21.40;40.10;;;;;;5007630;28;21600;-72
2021/04/23 04:52:51;;;;;;;4.78;1.75;;;21.40;39.90;;;;;;5010776;28;20411;-69
2021/04/23 04:55:18;;;;;;;2.08;1.38;;;21.40;40.00;;;;;;5010092;28;20418;-69
2021/04/23 04:57:44;;;;;;;2.22;1.58;;;21.40;40.10;;;;;;5019769;28;20418;-70
2021/04/23 05:00:11;;;;;;;1.75;1.40;;;21.40;40.10;;;;;;5002782;28;21206;-71
2021/04/23 05:02:37;;;;;;;3.00;1.48;;;21.40;40.20;;;;;;5016478;28;20791;-71
2021/04/23 05:05:05;;;;;;;5.05;1.75;;;21.40;40.00;;;;;;5012606;28;20480;-70
2021/04/23 05:07:32;;;;;;;1.90;1.50;;;21.40;40.10;;;;;;5012947;28;20414;-70
2021/04/23 05:09:58;;;;;;;2.10;1.50;;;21.40;40.10;;;;;;5011211;28;20428;-71
2021/04/23 05:12:25;;;;;;;3.40;1.77;;;21.40;40.10;;;;;;5010578;28;21389;-71
2021/04/23 05:14:51;;;;;;;3.67;1.75;;;21.40;40.10;;;;;;5011523;28;21883;-70
2021/04/23 05:17:17;;;;;;;3.20;1.38;;;21.40;40.10;;;;;;5009015;28;20431;-70
2021/04/23 05:19:44;;;;;;;3.65;1.70;;;21.40;40.00;;;;;;5011531;28;20426;-69
2021/04/23 05:22:11;;;;;;;2.50;1.20;;;21.30;39.90;;;;;;5011944;28;20422;-71
2021/04/23 05:24:37;;;;;;;3.55;1.25;;;21.40;40.10;;;;;;5012097;28;20415;-70
2021/04/23 05:27:04;;;;;;;2.50;1.70;;;21.40;40.10;;;;;;5015350;28;20417;-71
2021/04/23 05:29:30;;;;;;;1.50;0.98;;;21.40;40.10;;;;;;5012286;28;20415;-70
2021/04/23 05:31:56;;;;;;;2.63;1.45;;;21.40;40.20;;;;;;5012193;28;20416;-71
2021/04/23 05:34:22;;;;;;;2.97;1.40;;;21.40;40.00;;;;;;5008437;28;20928;-71
2021/04/23 05:36:49;;;;;;;3.15;1.67;;;21.40;40.80;;;;;;5008770;28;20421;-70
2021/04/23 05:39:16;;;;;;;3.05;1.45;;;21.40;40.10;;;;;;5008621;28;20764;-70
2021/04/23 05:41:42;;;;;;;2.47;1.70;;;21.40;40.20;;;;;;4997229;28;20415;-71
2021/04/23 05:44:09;;;;;;;4.65;1.70;;;21.40;40.10;;;;;;5006643;28;20418;-71
2021/04/23 05:46:35;;;;;;;4.83;1.60;;;21.40;40.10;;;;;;5005534;28;20413;-70
2021/04/23 05:49:01;;;;;;;3.88;1.15;;;21.40;39.90;;;;;;4998499;28;20434;-71
2021/04/23 05:51:28;;;;;;;3.80;1.40;;;21.40;40.00;;;;;;5017718;28;20413;-71
2021/04/23 05:53:54;;;;;;;2.20;1.30;;;21.40;40.10;;;;;;5014502;28;20418;-70
2021/04/23 05:56:21;;;;;;;3.30;1.40;;;21.40;40.10;;;;;;5007850;28;20432;-71
2021/04/23 05:58:47;;;;;;;2.25;1.50;;;21.50;40.10;;;;;;5003830;28;20478;-71
2021/04/23 06:01:13;;;;;;;4.10;1.40;;;21.50;40.10;;;;;;5006397;28;20423;-72
2021/04/23 06:03:39;;;;;;;2.78;1.60;;;21.40;40.00;;;;;;5007656;28;20415;-71
2021/04/23 06:06:05;;;;;;;4.03;1.55;;;21.40;40.00;;;;;;5014433;28;20413;-72
2021/04/23 06:08:31;;;;;;;3.80;1.55;;;21.50;40.00;;;;;;5013245;28;20449;-72
2021/04/23 06:10:57;;;;;;;1.63;1.20;;;21.40;39.90;;;;;;5016099;28;20408;-70
2021/04/23 06:13:24;;;;;;;3.60;1.83;;;21.40;40.00;;;;;;5003419;28;20420;-72
2021/04/23 06:15:51;;;;;;;3.00;1.40;;;21.40;40.10;;;;;;5007450;28;20401;-70
2021/04/23 06:18:17;;;;;;;3.60;1.75;;;21.40;40.10;;;;;;5004460;28;20420;-70
2021/04/23 06:20:43;;;;;;;3.00;1.33;;;21.40;40.10;;;;;;5004290;28;20413;-70
2021/04/23 06:23:09;;;;;;;3.50;1.30;;;21.40;40.10;;;;;;5009520;28;20431;-70
2021/04/23 06:25:35;;;;;;;2.78;1.38;;;21.40;40.20;;;;;;5004287;28;21159;-71
2021/04/23 06:28:03;;;;;;;5.00;1.50;;;21.40;40.20;;;;;;5001160;28;20422;-70
2021/04/23 06:30:34;;;;;;;3.30;1.80;;;21.40;40.20;;;;;;5003489;28;21323;-70
2021/04/23 06:33:06;;;;;;;2.75;1.40;;;21.40;40.20;;;;;;5017090;28;20415;-71
2021/04/23 06:35:32;;;;;;;3.25;1.20;;;21.40;40.30;;;;;;5007737;28;20423;-71
2021/04/23 06:37:59;;;;;;;2.17;1.30;;;21.40;40.20;;;;;;5007774;28;20409;-70
2021/04/23 06:40:25;;;;;;;3.17;1.40;;;21.40;40.30;;;;;;5007935;28;20417;-70
2021/04/23 06:42:51;;;;;;;2.80;1.70;;;21.40;40.30;;;;;;5004812;28;20470;-70
2021/04/23 06:45:19;;;;;;;3.03;1.30;;;21.30;40.10;;;;;;5008738;28;20415;-71
2021/04/23 06:47:46;;;;;;;2.80;1.38;;;21.30;40.10;;;;;;5015599;28;20480;-71
2021/04/23 06:50:13;;;;;;;4.10;1.30;;;21.30;40.30;;;;;;5006110;28;20469;-71
2021/04/23 06:52:39;;;;;;;4.03;1.50;;;21.30;40.10;;;;;;5007620;28;20481;-70
2021/04/23 06:55:07;;;;;;;2.17;1.38;;;21.30;40.20;;;;;;5003134;28;20407;-71
2021/04/23 06:57:33;;;;;;;1.73;1.33;;;21.30;40.20;;;;;;5004491;28;20419;-71
2021/04/23 06:59:59;;;;;;;3.30;1.58;;;21.30;40.10;;;;;;4999387;28;20421;-72
2021/04/23 07:02:25;;;;;;;3.50;1.52;;;21.30;41.10;;;;;;5020355;28;20425;-72
2021/04/23 07:04:52;;;;;;;3.75;1.40;;;21.30;40.30;;;;;;5005838;28;20424;-72
2021/04/23 07:07:18;;;;;;;3.55;1.40;;;21.20;40.20;;;;;;5002783;28;20474;-69
2021/04/23 07:09:44;;;;;;;3.25;1.40;;;21.20;40.30;;;;;;5006936;28;20411;-71
2021/04/23 07:12:11;;;;;;;3.90;1.30;;;21.20;40.30;;;;;;5006002;28;20432;-70
2021/04/23 07:14:37;;;;;;;3.65;1.27;;;21.30;40.40;;;;;;5006622;28;20489;-71
2021/04/23 07:17:04;;;;;;;3.50;1.20;;;21.30;40.40;;;;;;5014861;28;20418;-71
2021/04/23 07:19:30;;;;;;;4.00;1.80;;;21.30;40.30;;;;;;5020010;28;20477;-70
2021/04/23 07:21:57;;;;;;;3.20;1.23;;;21.30;40.30;;;;;;5020506;28;20424;-71
2021/04/23 07:24:23;;;;;;;3.33;1.30;;;21.30;40.40;;;;;;5000045;28;20423;-71
2021/04/23 07:26:49;;;;;;;3.05;1.60;;;21.30;40.40;;;;;;5016158;28;20407;-70
2021/04/23 07:29:15;;;;;;;5.28;1.70;;;21.30;40.50;;;;;;4999915;28;20481;-71
2021/04/23 07:31:41;;;;;;;3.42;1.50;;;21.30;40.40;;;;;;5017973;28;20811;-71
2021/04/23 07:34:07;;;;;;;1.70;1.40;;;21.30;40.40;;;;;;5006647;28;20947;-70
2021/04/23 07:36:34;;;;;;;6.15;1.40;;;21.20;40.30;;;;;;5007095;28;20907;-71
2021/04/23 07:39:01;;;;;;;5.53;1.60;;;21.20;40.30;;;;;;5004760;28;20524;-71
2021/04/23 07:41:27;;;;;;;2.30;1.20;;;21.20;41.20;;;;;;5005696;28;20416;-69
2021/04/23 07:43:53;;;;;;;2.47;1.20;;;21.20;40.40;;;;;;5008424;28;20414;-69
2021/04/23 07:46:19;;;;;;;1.90;1.30;;;21.20;40.40;;;;;;5006721;28;20475;-70
2021/04/23 07:48:45;;;;;;;3.40;1.70;;;21.20;40.40;;;;;;5005582;28;20424;-70
2021/04/23 07:51:11;;;;;;;2.50;1.20;;;21.20;40.30;;;;;;5005995;28;21240;-70
2021/04/23 07:53:37;;;;;;;3.10;1.45;;;21.20;40.40;;;;;;5006534;28;20971;-71
2021/04/23 07:56:05;;;;;;;2.95;1.52;;;21.20;40.50;;;;;;5005930;28;21498;-72
2021/04/23 07:58:31;;;;;;;1.83;1.23;;;21.20;40.50;;;;;;5003914;28;20422;-71
2021/04/23 08:00:58;;;;;;;4.10;1.30;;;21.20;40.50;;;;;;5005173;28;20444;-71
2021/04/23 08:03:25;;;;;;;4.80;1.48;;;21.20;40.40;;;;;;5006632;28;20420;-70
2021/04/23 08:05:51;;;;;;;4.32;1.75;;;21.20;40.30;;;;;;5008554;28;20549;-70
2021/04/23 08:08:17;;;;;;;2.65;1.60;;;21.20;40.20;;;;;;5006154;28;20421;-71
2021/04/23 08:10:43;;;;;;;4.00;1.50;;;21.20;40.20;;;;;;4994330;28;20429;-70
2021/04/23 08:13:10;;;;;;;2.05;1.02;;;21.20;40.30;;;;;;5003334;28;20418;-70
2021/04/23 08:15:37;;;;;;;2.35;1.30;;;21.20;40.30;;;;;;5008117;28;20421;-70
2021/04/23 08:18:03;;;;;;;2.80;1.40;;;21.20;41.10;;;;;;5007056;28;20482;-69
2021/04/23 08:20:29;;;;;;;2.75;1.40;;;21.20;40.30;;;;;;5003243;28;20426;-70
2021/04/23 08:22:56;;;;;;;2.78;1.10;;;21.20;41.10;;;;;;5015147;28;20427;-70
2021/04/23 08:25:22;;;;;;;5.32;1.30;;;21.20;40.30;;;;;;5008253;28;20433;-70
2021/04/23 08:27:49;;;;;;;3.63;1.52;;;21.30;40.30;;;;;;5005659;28;20409;-70
2021/04/23 08:30:17;;;;;;;5.18;1.40;;;21.30;40.30;;;;;;4999487;28;20489;-72
2021/04/23 08:32:43;;;;;;;3.00;1.15;;;21.30;40.20;;;;;;4994388;28;20477;-70
2021/04/23 08:35:10;;;;;;;2.17;1.45;;;21.30;40.30;;;;;;5005673;28;20427;-70
2021/04/23 08:37:36;;;;;;;3.58;1.50;;;21.30;40.20;;;;;;5004550;28;20949;-70
2021/04/23 08:40:04;;;;;;;3.00;1.30;;;21.30;40.20;;;;;;5007426;28;20426;-69
2021/04/23 08:42:31;;;;;;;2.27;1.20;;;21.30;40.10;;;;;;5006264;28;20928;-71
2021/04/23 08:44:57;;;;;;;3.17;1.65;;;21.30;40.30;;;;;;5002447;28;20473;-70
2021/04/23 08:47:24;;;;;;;2.20;1.20;;;21.30;40.30;;;;;;5004814;28;20428;-69
2021/04/23 08:49:51;;;;;;;3.97;1.60;;;21.30;40.40;;;;;;5003015;28;20420;-72
2021/04/23 08:52:17;;;;;;;2.38;1.48;;;21.30;40.40;;;;;;5005392;28;20928;-70
2021/04/23 08:54:44;;;;;;;2.70;1.10;;;21.20;40.30;;;;;;5004845;28;21480;-71
2021/04/23 08:57:10;;;;;;;4.60;1.30;;;21.20;40.50;;;;;;5003338;28;21103;-71
2021/04/23 08:59:36;;;;;;;2.00;1.30;;;21.20;40.50;;;;;;5001091;28;20793;-71
2021/04/23 09:02:02;;;;;;;4.15;1.40;;;21.20;40.40;;;;;;5002380;28;20440;-70
2021/04/23 09:04:29;;;;;;;6.00;1.20;;;21.20;40.40;;;;;;5006033;28;20416;-70
2021/04/23 09:07:02;;;;;;;2.10;1.17;;;21.10;40.20;;;;;;4996904;28;20416;-70
2021/04/23 09:09:34;;;;;;;2.90;1.60;;;21.10;40.30;;;;;;5015741;28;20406;-72
2021/04/23 09:12:00;;;;;;;3.17;1.40;;;21.10;40.30;;;;;;5005984;28;20422;-70
2021/04/23 09:14:26;;;;;;;2.70;1.20;;;21.10;40.50;;;;;;5021998;28;21431;-72
2021/04/23 09:16:55;;;;;;;3.50;1.40;;;21.10;40.60;;;;;;5004638;28;20421;-70
2021/04/23 09:19:23;;;;;;;1.87;1.20;;;21.10;40.50;;;;;;5005744;28;20424;-71
2021/04/23 09:21:52;;;;;;;4.60;1.63;;;21.20;40.40;;;;;;5008478;28;20575;-70
2021/04/23 09:24:20;;;;;;;2.63;1.40;;;21.20;40.40;;;;;;5009002;28;20421;-70
2021/04/23 09:26:48;;;;;;;4.07;1.77;;;21.20;40.40;;;;;;5008593;28;20483;-70
2021/04/23 09:29:25;;;;;;;2.25;1.40;;;21.20;40.30;;;;;;5008540;28;21017;-71
2021/04/23 09:31:51;;;;;;;4.35;1.30;;;21.20;40.30;;;;;;5006354;28;20423;-71
2021/04/23 09:34:17;;;;;;;4.50;1.37;;;21.30;40.30;;;;;;5007102;28;20943;-71
2021/04/23 09:36:44;;;;;;;3.90;1.70;;;21.20;40.30;;;;;;4997877;28;20927;-71
2021/04/23 09:39:12;;;;;;;1.85;1.30;;;21.20;40.30;;;;;;5008155;28;20415;-71
2021/04/23 09:41:39;;;;;;;3.42;1.00;;;21.20;40.40;;;;;;5006044;28;20418;-71
2021/04/23 09:44:07;;;;;;;2.13;1.60;;;21.20;40.30;;;;;;5006907;28;20425;-71
2021/04/23 09:46:34;;;;;;;4.60;1.70;;;21.20;40.40;;;;;;5001259;28;20483;-71
2021/04/23 09:49:16;;;;;;;3.17;1.20;;;21.20;40.50;;;;;;5016850;28;20417;-71
2021/04/23 09:51:42;;;;;;;3.60;1.10;;;21.10;40.40;;;;;;5005482;28;20415;-73
2021/04/23 09:54:14;;;;;;;2.38;1.63;;;21.10;40.40;;;;;;5008010;28;20976;-72
2021/04/23 09:56:40;;;;;;;4.45;1.10;;;21.10;40.50;;;;;;5005612;28;20494;-71
2021/04/23 09:59:18;;;;;;;3.30;1.40;;;21.10;40.50;;;;;;5000168;28;20424;-71
2021/04/23 10:01:59;;;;;;;3.90;1.40;;;21.10;40.40;;;;;;5005753;28;20419;-70
2021/04/23 10:04:30;;;;;;;5.88;1.50;;;21.20;40.50;;;;;;5005879;28;20766;-72
2021/04/23 10:07:14;;;;;;;3.38;1.42;;;21.20;40.40;;;;;;5005380;28;20475;-70
2021/04/23 10:09:48;;;;;;;2.80;0.98;;;21.20;40.30;;;;;;5005965;28;20407;-71
2021/04/23 10:12:30;;;;;;;2.78;1.67;;;21.20;40.10;;;;;;5004458;28;20443;-71
2021/04/23 10:14:57;;;;;;;2.25;1.40;;;21.20;40.20;;;;;;5005736;28;20964;-72
2021/04/23 10:17:24;;;;;;;4.18;1.52;;;21.30;40.30;;;;;;5005460;28;20432;-71
2021/04/23 10:19:50;;;;;;;3.80;1.42;;;21.20;40.30;;;;;;5003846;28;20429;-70
2021/04/23 10:22:16;;;;;;;3.55;1.60;;;21.20;40.20;;;;;;5007707;28;20964;-70
2021/04/23 10:24:42;;;;;;;2.97;1.40;;;21.20;40.50;;;;;;5006134;28;20406;-73
2021/04/23 10:27:09;;;;;;;2.83;1.50;;;21.20;40.40;;;;;;5008141;28;20405;-72
2021/04/23 10:29:36;;;;;;;3.20;1.40;;;21.20;40.50;;;;;;5008355;28;20419;-71
2021/04/23 10:32:04;;;;;;;4.00;1.40;;;21.20;40.30;;;;;;5007819;28;20420;-71
2021/04/23 10:34:32;;;;;;;5.10;1.40;;;21.20;40.30;;;;;;5008495;28;20416;-70
2021/04/23 10:36:58;;;;;;;2.70;1.50;;;21.20;40.30;;;;;;5008223;28;20805;-71
2021/04/23 10:39:24;;;;;;;2.40;1.60;;;21.20;40.30;;;;;;5004970;28;20424;-71
2021/04/23 10:41:51;;;;;;;3.90;1.20;;;21.20;40.30;;;;;;4998038;28;20439;-71
2021/04/23 10:44:20;;;;;;;1.52;1.27;;;21.20;40.40;;;;;;5022109;28;20428;-71
2021/04/23 10:46:53;;;;;;;4.00;1.60;;;21.20;40.30;;;;;;5000330;28;20521;-72
2021/04/23 10:49:19;;;;;;;5.40;1.40;;;21.20;40.10;;;;;;4996580;28;20408;-70
2021/04/23 10:51:45;;;;;;;4.00;1.30;;;21.20;40.80;;;;;;5007804;28;20419;-70
2021/04/23 10:54:14;;;;;;;3.47;1.58;;;21.10;40.80;;;;;;5000657;28;20420;-71
2021/04/23 10:56:48;;;;;;;3.28;1.40;;;21.10;41.40;;;;;;4990173;28;20425;-72
2021/04/23 10:59:28;;;;;;;2.50;1.40;;;21.10;40.80;;;;;;5002886;28;20891;-70
2021/04/23 11:02:15;;;;;;;1.60;1.10;;;21.10;40.90;;;;;;5014376;28;20450;-70
2021/04/23 11:04:56;;;;;;;4.45;1.58;;;21.10;40.80;;;;;;4997991;28;20581;-71
2021/04/23 11:07:22;;;;;;;2.57;1.50;;;21.00;40.80;;;;;;5005823;28;20414;-70
2021/04/23 11:09:58;;;;;;;3.67;1.08;;;21.10;40.70;;;;;;5010005;28;20412;-70
2021/04/23 11:12:26;;;;;;;1.70;1.20;;;21.10;40.80;;;;;;5002745;28;20457;-70
2021/04/23 11:14:53;;;;;;;1.92;1.40;;;21.10;40.80;;;;;;5003595;28;20424;-72
2021/04/23 11:17:31;;;;;;;2.08;1.40;;;21.00;40.70;;;;;;4997213;28;20485;-70
2021/04/23 11:19:57;;;;;;;4.20;1.60;;;21.10;40.70;;;;;;5014331;28;20423;-71
2021/04/23 11:22:23;;;;;;;4.40;1.50;;;21.00;40.80;;;;;;5006737;28;20417;-73
2021/04/23 11:25:15;;;;;;;4.97;1.30;;;21.10;40.80;;;;;;5003674;28;20927;-70
2021/04/23 11:28:06;;;;;;;3.93;1.50;;;21.10;40.70;;;;;;5008114;28;20891;-72
2021/04/23 11:31:08;;;;;;;2.20;1.30;;;21.10;40.60;;;;;;5003109;28;20419;-70
2021/04/23 11:33:54;;;;;;;3.78;1.38;;;21.20;40.60;;;;;;5007105;28;20423;-70
2021/04/23 11:36:21;;;;;;;3.97;1.90;;;21.20;40.40;;;;;;5005518;28;21056;-71
2021/04/23 11:38:59;;;;;;;2.35;1.70;;;21.20;40.40;;;;;;5006410;28;20421;-72
2021/04/23 11:41:25;;;;;;;4.60;1.20;;;21.20;40.40;;;;;;5005080;28;20417;-70
2021/04/23 11:43:51;;;;;;;3.75;1.45;;;21.20;40.40;;;;;;5003630;28;20428;-70
2021/04/23 11:46:18;;;;;;;3.10;1.08;;;21.20;40.50;;;;;;5006236;28;20424;-71
2021/04/23 11:48:52;;;;;;;5.85;1.92;;;21.20;40.50;;;;;;4993350;28;20908;-72
2021/04/23 11:51:18;;;;;;;2.43;1.40;;;21.20;40.70;;;;;;4993465;28;20969;-70
2021/04/23 11:53:48;;;;;;;2.35;1.40;;;21.10;40.60;;;;;;4994951;28;20928;-70
2021/04/23 11:56:14;;;;;;;4.68;1.20;;;21.10;40.60;;;;;;5004690;28;20403;-70
2021/04/23 11:58:42;;;;;;;3.85;1.30;;;21.10;40.70;;;;;;5003569;28;20414;-71
2021/04/23 12:01:08;;;;;;;4.28;1.77;;;21.10;40.70;;;;;;5000949;28;20415;-71
2021/04/23 12:03:35;;;;;;;3.20;1.30;;;21.10;40.60;;;;;;5005581;28;20827;-70
2021/04/23 12:06:02;;;;;;;2.90;1.20;;;21.10;40.60;;;;;;5002729;28;20422;-71
2021/04/23 12:08:30;;;;;;;3.30;1.10;;;21.10;40.60;;;;;;5006543;28;20417;-72
2021/04/23 12:10:56;;;;;;;2.83;1.27;;;21.20;40.70;;;;;;5006692;28;20500;-72
2021/04/23 12:13:24;;;;;;;2.03;1.10;;;21.20;40.50;;;;;;5002519;28;20417;-71
2021/04/23 12:15:51;;;;;;;1.67;1.13;;;21.30;40.40;;;;;;5004836;28;20417;-72
2021/04/23 12:18:17;;;;;;;4.15;1.35;;;21.40;40.20;;;;;;5004385;28;20432;-70
2021/04/23 12:20:45;;;;;;;3.92;1.70;;;21.50;40.90;;;;;;5005508;28;20924;-70
2021/04/23 12:23:12;;;;;;;3.90;1.33;;;21.50;39.90;;;;;;5005858;28;20912;-71
2021/04/23 12:25:39;;;;;;;4.13;1.30;;;21.60;39.90;;;;;;5000145;28;21451;-71
2021/04/23 12:28:27;;;;;;;2.40;1.33;;;21.60;39.80;;;;;;5005633;28;20423;-71
2021/04/23 12:30:55;;;;;;;4.60;1.50;;;21.60;39.80;;;;;;4999519;28;20814;-72
2021/04/23 12:33:21;;;;;;;3.75;1.25;;;21.60;39.70;;;;;;5003012;28;20990;-72
2021/04/23 12:35:50;;;;;;;3.25;1.60;;;21.60;39.60;;;;;;5005512;28;20413;-70
2021/04/23 12:38:17;;;;;;;4.57;1.23;;;21.50;39.40;;;;;;5005113;28;20510;-71
2021/04/23 12:40:44;;;;;;;5.18;2.40;;;21.50;39.70;;;;;;5002181;28;21059;-70
2021/04/23 12:43:18;;;;;;;2.88;1.13;;;21.40;39.80;;;;;;5001859;28;20410;-69
2021/04/23 12:45:45;;;;;;;4.40;1.10;;;21.40;39.80;;;;;;5007767;28;20434;-69
2021/04/23 12:48:12;;;;;;;2.53;1.20;;;21.40;40.10;;;;;;5008569;28;20757;-70
2021/04/23 12:50:38;;;;;;;3.17;1.30;;;21.30;40.10;;;;;;5007940;28;20422;-71